sensor_id;sensor_type;location;lat;lon;timestamp;P1;durP1;ratioP1;P2;durP2;ratioP2
15327;SDS011;7764;51.430;6.840;2023-04-29T00:00:14;51.47;;;31.23;;
15327;SDS011;7764;51.430;6.840;2023-04-29T00:02:41;50.13;;;31.80;;
15327;SDS011;7764;51.430;6.840;2023-04-29T00:05:08;50.73;;;33.57;;
15327;SDS011;7764;51.430;6.840;2023-04-29T00:07:35;48.90;;;32.67;;
15327;SDS011;7764;51.430;6.840;2023-04-29T00:10:02;53.20;;;33.00;;
15327;SDS011;7764;51.430;6.840;2023-04-29T00:12:30;51.87;;;33.30;;
15327;SDS011;7764;51.430;6.840;2023-04-29T00:14:57;50.03;;;33.03;;
15327;SDS011;7764;51.430;6.840;2023-04-29T00:17:26;53.97;;;33.07;;
15327;SDS011;7764;51.430;6.840;2023-04-29T00:19:52;55.93;;;34.53;;
15327;SDS011;7764;51.430;6.840;2023-04-29T00:22:19;55.10;;;33.87;;
15327;SDS011;7764;51.430;6.840;2023-04-29T00:24:46;63.77;;;36.00;;
15327;SDS011;7764;51.430;6.840;2023-04-29T00:27:14;60.47;;;35.70;;
15327;SDS011;7764;51.430;6.840;2023-04-29T00:29:41;65.90;;;36.60;;
15327;SDS011;7764;51.430;6.840;2023-04-29T00:32:08;63.60;;;37.57;;
15327;SDS011;7764;51.430;6.840;2023-04-29T00:34:36;64.23;;;37.67;;
15327;SDS011;7764;51.430;6.840;2023-04-29T00:37:03;67.33;;;38.30;;
15327;SDS011;7764;51.430;6.840;2023-04-29T00:39:30;68.90;;;39.23;;
15327;SDS011;7764;51.430;6.840;2023-04-29T00:41:57;69.20;;;38.73;;
15327;SDS011;7764;51.430;6.840;2023-04-29T00:44:24;62.57;;;36.73;;
15327;SDS011;7764;51.430;6.840;2023-04-29T00:46:51;68.40;;;40.03;;
15327;SDS011;7764;51.430;6.840;2023-04-29T00:49:18;67.53;;;38.40;;
15327;SDS011;7764;51.430;6.840;2023-04-29T00:51:46;67.50;;;38.27;;
15327;SDS011;7764;51.430;6.840;2023-04-29T00:54:14;68.37;;;36.93;;
15327;SDS011;7764;51.430;6.840;2023-04-29T00:56:44;69.50;;;39.23;;
15327;SDS011;7764;51.430;6.840;2023-04-29T00:59:11;70.37;;;38.13;;
15327;SDS011;7764;51.430;6.840;2023-04-29T01:01:39;67.80;;;38.73;;
15327;SDS011;7764;51.430;6.840;2023-04-29T01:04:07;74.90;;;40.87;;
15327;SDS011;7764;51.430;6.840;2023-04-29T01:06:36;74.83;;;40.27;;
15327;SDS011;7764;51.430;6.840;2023-04-29T01:09:30;78.97;;;41.27;;
15327;SDS011;7764;51.430;6.840;2023-04-29T01:12:10;76.50;;;41.37;;
15327;SDS011;7764;51.430;6.840;2023-04-29T01:14:47;73.13;;;39.60;;
15327;SDS011;7764;51.430;6.840;2023-04-29T01:17:19;75.20;;;40.60;;
15327;SDS011;7764;51.430;6.840;2023-04-29T01:19:53;75.23;;;39.23;;
15327;SDS011;7764;51.430;6.840;2023-04-29T01:22:21;78.67;;;40.47;;
15327;SDS011;7764;51.430;6.840;2023-04-29T01:24:50;76.83;;;40.27;;
15327;SDS011;7764;51.430;6.840;2023-04-29T01:27:20;72.23;;;38.50;;
15327;SDS011;7764;51.430;6.840;2023-04-29T01:29:55;74.23;;;38.60;;
15327;SDS011;7764;51.430;6.840;2023-04-29T01:32:29;77.40;;;40.70;;
15327;SDS011;7764;51.430;6.840;2023-04-29T01:35:09;78.40;;;41.57;;
15327;SDS011;7764;51.430;6.840;2023-04-29T01:37:48;84.07;;;42.13;;
15327;SDS011;7764;51.430;6.840;2023-04-29T01:40:24;83.87;;;42.40;;
15327;SDS011;7764;51.430;6.840;2023-04-29T01:42:58;89.20;;;43.17;;
15327;SDS011;7764;51.430;6.840;2023-04-29T01:45:27;90.10;;;43.23;;
15327;SDS011;7764;51.430;6.840;2023-04-29T01:47:55;96.63;;;45.20;;
15327;SDS011;7764;51.430;6.840;2023-04-29T01:50:24;101.33;;;46.90;;
15327;SDS011;7764;51.430;6.840;2023-04-29T01:52:51;97.90;;;44.87;;
15327;SDS011;7764;51.430;6.840;2023-04-29T01:55:18;101.73;;;45.37;;
15327;SDS011;7764;51.430;6.840;2023-04-29T01:57:47;99.50;;;46.67;;
15327;SDS011;7764;51.430;6.840;2023-04-29T02:00:13;106.87;;;47.73;;
15327;SDS011;7764;51.430;6.840;2023-04-29T02:02:40;109.10;;;48.77;;
15327;SDS011;7764;51.430;6.840;2023-04-29T02:05:08;102.40;;;47.73;;
15327;SDS011;7764;51.430;6.840;2023-04-29T02:07:35;109.03;;;48.60;;
15327;SDS011;7764;51.430;6.840;2023-04-29T02:10:02;111.20;;;49.03;;
15327;SDS011;7764;51.430;6.840;2023-04-29T02:12:29;106.83;;;48.47;;
15327;SDS011;7764;51.430;6.840;2023-04-29T02:14:57;110.63;;;48.40;;
15327;SDS011;7764;51.430;6.840;2023-04-29T02:17:24;111.30;;;49.63;;
15327;SDS011;7764;51.430;6.840;2023-04-29T02:19:51;112.47;;;49.17;;
15327;SDS011;7764;51.430;6.840;2023-04-29T02:25:47;95.37;;;46.07;;
15327;SDS011;7764;51.430;6.840;2023-04-29T02:28:14;97.27;;;45.80;;
15327;SDS011;7764;51.430;6.840;2023-04-29T02:30:43;93.23;;;45.67;;
15327;SDS011;7764;51.430;6.840;2023-04-29T02:33:10;94.57;;;45.33;;
15327;SDS011;7764;51.430;6.840;2023-04-29T02:35:36;93.80;;;44.60;;
15327;SDS011;7764;51.430;6.840;2023-04-29T02:38:03;80.27;;;40.57;;
15327;SDS011;7764;51.430;6.840;2023-04-29T02:40:30;81.87;;;38.43;;
15327;SDS011;7764;51.430;6.840;2023-04-29T02:42:57;76.57;;;38.50;;
15327;SDS011;7764;51.430;6.840;2023-04-29T02:45:25;71.17;;;37.27;;
15327;SDS011;7764;51.430;6.840;2023-04-29T02:47:53;68.50;;;36.00;;
15327;SDS011;7764;51.430;6.840;2023-04-29T02:50:20;68.27;;;37.43;;
15327;SDS011;7764;51.430;6.840;2023-04-29T02:52:47;67.80;;;36.63;;
15327;SDS011;7764;51.430;6.840;2023-04-29T02:55:14;67.07;;;34.10;;
15327;SDS011;7764;51.430;6.840;2023-04-29T02:57:40;64.20;;;34.57;;
15327;SDS011;7764;51.430;6.840;2023-04-29T03:00:08;63.07;;;34.13;;
15327;SDS011;7764;51.430;6.840;2023-04-29T03:02:35;68.47;;;35.53;;
15327;SDS011;7764;51.430;6.840;2023-04-29T03:05:04;63.47;;;34.73;;
15327;SDS011;7764;51.430;6.840;2023-04-29T03:07:31;64.43;;;34.83;;
15327;SDS011;7764;51.430;6.840;2023-04-29T03:09:58;60.50;;;34.03;;
15327;SDS011;7764;51.430;6.840;2023-04-29T03:12:25;64.43;;;34.93;;
15327;SDS011;7764;51.430;6.840;2023-04-29T03:14:52;65.50;;;36.07;;
15327;SDS011;7764;51.430;6.840;2023-04-29T03:17:19;64.17;;;34.57;;
15327;SDS011;7764;51.430;6.840;2023-04-29T03:19:46;62.57;;;34.37;;
15327;SDS011;7764;51.430;6.840;2023-04-29T03:22:14;59.83;;;32.60;;
15327;SDS011;7764;51.430;6.840;2023-04-29T03:24:40;56.10;;;31.50;;
15327;SDS011;7764;51.430;6.840;2023-04-29T03:27:08;58.03;;;33.13;;
15327;SDS011;7764;51.430;6.840;2023-04-29T03:29:35;56.53;;;33.60;;
15327;SDS011;7764;51.430;6.840;2023-04-29T03:32:02;58.97;;;32.53;;
15327;SDS011;7764;51.430;6.840;2023-04-29T03:34:29;56.47;;;31.80;;
15327;SDS011;7764;51.430;6.840;2023-04-29T03:36:56;55.37;;;31.90;;
15327;SDS011;7764;51.430;6.840;2023-04-29T03:39:24;55.37;;;30.30;;
15327;SDS011;7764;51.430;6.840;2023-04-29T03:41:52;52.33;;;30.60;;
15327;SDS011;7764;51.430;6.840;2023-04-29T03:44:19;52.90;;;30.03;;
15327;SDS011;7764;51.430;6.840;2023-04-29T03:46:45;52.03;;;30.37;;
15327;SDS011;7764;51.430;6.840;2023-04-29T03:49:12;54.57;;;30.97;;
15327;SDS011;7764;51.430;6.840;2023-04-29T03:51:40;53.13;;;30.47;;
15327;SDS011;7764;51.430;6.840;2023-04-29T03:54:06;51.27;;;29.33;;
15327;SDS011;7764;51.430;6.840;2023-04-29T03:56:35;50.63;;;29.10;;
15327;SDS011;7764;51.430;6.840;2023-04-29T03:59:02;51.70;;;29.53;;
15327;SDS011;7764;51.430;6.840;2023-04-29T04:01:28;54.53;;;29.77;;
15327;SDS011;7764;51.430;6.840;2023-04-29T04:03:55;52.40;;;29.43;;
15327;SDS011;7764;51.430;6.840;2023-04-29T04:06:22;52.83;;;29.37;;
15327;SDS011;7764;51.430;6.840;2023-04-29T04:08:49;52.47;;;29.47;;
15327;SDS011;7764;51.430;6.840;2023-04-29T04:11:16;50.03;;;30.60;;
15327;SDS011;7764;51.430;6.840;2023-04-29T04:13:44;52.33;;;29.57;;
15327;SDS011;7764;51.430;6.840;2023-04-29T04:16:11;51.47;;;30.33;;
15327;SDS011;7764;51.430;6.840;2023-04-29T04:18:38;49.17;;;29.90;;
15327;SDS011;7764;51.430;6.840;2023-04-29T04:21:05;49.23;;;28.67;;
15327;SDS011;7764;51.430;6.840;2023-04-29T04:23:32;49.17;;;29.77;;
15327;SDS011;7764;51.430;6.840;2023-04-29T04:25:59;51.67;;;30.17;;
15327;SDS011;7764;51.430;6.840;2023-04-29T04:28:26;50.30;;;29.23;;
15327;SDS011;7764;51.430;6.840;2023-04-29T04:30:54;46.90;;;28.73;;
15327;SDS011;7764;51.430;6.840;2023-04-29T04:33:21;51.00;;;30.60;;
15327;SDS011;7764;51.430;6.840;2023-04-29T04:35:48;54.17;;;30.67;;
15327;SDS011;7764;51.430;6.840;2023-04-29T04:38:14;53.40;;;30.80;;
15327;SDS011;7764;51.430;6.840;2023-04-29T04:40:41;57.03;;;31.83;;
15327;SDS011;7764;51.430;6.840;2023-04-29T04:43:08;53.73;;;31.20;;
15327;SDS011;7764;51.430;6.840;2023-04-29T04:45:35;55.17;;;31.60;;
15327;SDS011;7764;51.430;6.840;2023-04-29T04:48:04;56.73;;;32.43;;
15327;SDS011;7764;51.430;6.840;2023-04-29T04:50:31;54.17;;;32.07;;
15327;SDS011;7764;51.430;6.840;2023-04-29T04:52:58;52.20;;;31.70;;
15327;SDS011;7764;51.430;6.840;2023-04-29T04:55:25;56.40;;;32.60;;
15327;SDS011;7764;51.430;6.840;2023-04-29T04:57:51;53.33;;;31.80;;
15327;SDS011;7764;51.430;6.840;2023-04-29T05:00:18;53.30;;;31.20;;
15327;SDS011;7764;51.430;6.840;2023-04-29T05:02:45;55.73;;;33.03;;
15327;SDS011;7764;51.430;6.840;2023-04-29T05:05:14;53.00;;;32.47;;
15327;SDS011;7764;51.430;6.840;2023-04-29T05:07:40;54.20;;;32.20;;
15327;SDS011;7764;51.430;6.840;2023-04-29T05:10:08;54.37;;;33.17;;
15327;SDS011;7764;51.430;6.840;2023-04-29T05:12:35;53.87;;;32.47;;
15327;SDS011;7764;51.430;6.840;2023-04-29T05:15:02;59.53;;;32.77;;
15327;SDS011;7764;51.430;6.840;2023-04-29T05:17:29;49.13;;;31.53;;
15327;SDS011;7764;51.430;6.840;2023-04-29T05:19:56;42.30;;;28.17;;
15327;SDS011;7764;51.430;6.840;2023-04-29T05:22:24;45.70;;;29.10;;
15327;SDS011;7764;51.430;6.840;2023-04-29T05:24:51;45.47;;;29.33;;
15327;SDS011;7764;51.430;6.840;2023-04-29T05:27:19;44.77;;;29.17;;
15327;SDS011;7764;51.430;6.840;2023-04-29T05:29:46;42.40;;;28.07;;
15327;SDS011;7764;51.430;6.840;2023-04-29T05:32:12;43.07;;;27.90;;
15327;SDS011;7764;51.430;6.840;2023-04-29T05:34:39;41.90;;;28.70;;
15327;SDS011;7764;51.430;6.840;2023-04-29T05:37:06;42.07;;;27.70;;
15327;SDS011;7764;51.430;6.840;2023-04-29T05:39:34;44.63;;;29.20;;
15327;SDS011;7764;51.430;6.840;2023-04-29T05:42:01;41.27;;;27.47;;
15327;SDS011;7764;51.430;6.840;2023-04-29T05:44:28;41.10;;;27.77;;
15327;SDS011;7764;51.430;6.840;2023-04-29T05:46:55;40.63;;;27.03;;
15327;SDS011;7764;51.430;6.840;2023-04-29T05:49:21;38.97;;;27.37;;
15327;SDS011;7764;51.430;6.840;2023-04-29T05:51:48;44.83;;;28.20;;
15327;SDS011;7764;51.430;6.840;2023-04-29T05:54:15;43.57;;;26.97;;
15327;SDS011;7764;51.430;6.840;2023-04-29T05:56:43;46.30;;;29.27;;
15327;SDS011;7764;51.430;6.840;2023-04-29T05:59:10;41.17;;;26.70;;
15327;SDS011;7764;51.430;6.840;2023-04-29T06:01:37;41.07;;;27.77;;
15327;SDS011;7764;51.430;6.840;2023-04-29T06:04:04;39.40;;;26.13;;
15327;SDS011;7764;51.430;6.840;2023-04-29T06:06:31;41.10;;;26.70;;
15327;SDS011;7764;51.430;6.840;2023-04-29T06:08:59;39.60;;;26.57;;
15327;SDS011;7764;51.430;6.840;2023-04-29T06:11:26;39.73;;;26.43;;
15327;SDS011;7764;51.430;6.840;2023-04-29T06:13:54;38.43;;;26.27;;
15327;SDS011;7764;51.430;6.840;2023-04-29T06:16:21;36.43;;;25.90;;
15327;SDS011;7764;51.430;6.840;2023-04-29T06:18:48;37.00;;;23.93;;
15327;SDS011;7764;51.430;6.840;2023-04-29T06:21:15;35.13;;;25.00;;
15327;SDS011;7764;51.430;6.840;2023-04-29T06:23:42;36.50;;;24.83;;
15327;SDS011;7764;51.430;6.840;2023-04-29T06:26:09;38.17;;;25.63;;
15327;SDS011;7764;51.430;6.840;2023-04-29T06:28:36;36.33;;;25.13;;
15327;SDS011;7764;51.430;6.840;2023-04-29T06:31:04;36.50;;;25.60;;
15327;SDS011;7764;51.430;6.840;2023-04-29T06:33:31;35.23;;;24.20;;
15327;SDS011;7764;51.430;6.840;2023-04-29T06:35:58;35.60;;;24.93;;
15327;SDS011;7764;51.430;6.840;2023-04-29T06:38:25;42.20;;;28.63;;
15327;SDS011;7764;51.430;6.840;2023-04-29T06:40:52;41.10;;;27.40;;
15327;SDS011;7764;51.430;6.840;2023-04-29T06:43:19;36.43;;;25.43;;
15327;SDS011;7764;51.430;6.840;2023-04-29T06:45:46;38.20;;;25.83;;
15327;SDS011;7764;51.430;6.840;2023-04-29T06:48:14;39.00;;;25.77;;
15327;SDS011;7764;51.430;6.840;2023-04-29T06:50:47;35.90;;;25.33;;
15327;SDS011;7764;51.430;6.840;2023-04-29T06:53:14;35.90;;;25.27;;
15327;SDS011;7764;51.430;6.840;2023-04-29T06:55:41;39.80;;;24.93;;
15327;SDS011;7764;51.430;6.840;2023-04-29T06:58:10;40.90;;;27.60;;
15327;SDS011;7764;51.430;6.840;2023-04-29T07:00:37;35.17;;;25.20;;
15327;SDS011;7764;51.430;6.840;2023-04-29T07:03:04;35.60;;;24.07;;
15327;SDS011;7764;51.430;6.840;2023-04-29T07:05:32;35.70;;;24.07;;
15327;SDS011;7764;51.430;6.840;2023-04-29T07:07:59;34.10;;;24.40;;
15327;SDS011;7764;51.430;6.840;2023-04-29T07:10:27;37.07;;;25.50;;
15327;SDS011;7764;51.430;6.840;2023-04-29T07:12:54;37.07;;;25.73;;
15327;SDS011;7764;51.430;6.840;2023-04-29T07:15:22;33.23;;;24.10;;
15327;SDS011;7764;51.430;6.840;2023-04-29T07:17:48;36.43;;;24.93;;
15327;SDS011;7764;51.430;6.840;2023-04-29T07:20:15;37.13;;;25.03;;
15327;SDS011;7764;51.430;6.840;2023-04-29T07:22:44;37.37;;;25.33;;
15327;SDS011;7764;51.430;6.840;2023-04-29T07:25:10;35.33;;;24.57;;
15327;SDS011;7764;51.430;6.840;2023-04-29T07:27:38;35.10;;;25.03;;
15327;SDS011;7764;51.430;6.840;2023-04-29T07:30:06;37.97;;;26.90;;
15327;SDS011;7764;51.430;6.840;2023-04-29T07:32:34;41.50;;;28.97;;
15327;SDS011;7764;51.430;6.840;2023-04-29T07:35:01;35.17;;;24.53;;
15327;SDS011;7764;51.430;6.840;2023-04-29T07:37:28;38.50;;;26.60;;
15327;SDS011;7764;51.430;6.840;2023-04-29T07:39:56;40.17;;;26.83;;
15327;SDS011;7764;51.430;6.840;2023-04-29T07:42:23;37.10;;;26.07;;
15327;SDS011;7764;51.430;6.840;2023-04-29T07:44:50;37.53;;;26.33;;
15327;SDS011;7764;51.430;6.840;2023-04-29T07:47:17;39.00;;;26.60;;
15327;SDS011;7764;51.430;6.840;2023-04-29T07:49:44;42.40;;;27.67;;
15327;SDS011;7764;51.430;6.840;2023-04-29T07:52:10;38.63;;;25.63;;
15327;SDS011;7764;51.430;6.840;2023-04-29T07:54:37;37.50;;;25.50;;
15327;SDS011;7764;51.430;6.840;2023-04-29T07:57:05;40.00;;;26.63;;
15327;SDS011;7764;51.430;6.840;2023-04-29T07:59:32;41.37;;;26.73;;
15327;SDS011;7764;51.430;6.840;2023-04-29T08:01:59;41.77;;;27.77;;
15327;SDS011;7764;51.430;6.840;2023-04-29T08:04:26;43.33;;;28.40;;
15327;SDS011;7764;51.430;6.840;2023-04-29T08:06:53;40.60;;;27.33;;
15327;SDS011;7764;51.430;6.840;2023-04-29T08:09:19;39.43;;;27.23;;
15327;SDS011;7764;51.430;6.840;2023-04-29T08:11:46;39.60;;;27.03;;
15327;SDS011;7764;51.430;6.840;2023-04-29T08:14:14;41.33;;;25.97;;
15327;SDS011;7764;51.430;6.840;2023-04-29T08:16:41;39.37;;;26.80;;
15327;SDS011;7764;51.430;6.840;2023-04-29T08:19:08;41.50;;;27.73;;
15327;SDS011;7764;51.430;6.840;2023-04-29T08:21:35;47.20;;;29.73;;
15327;SDS011;7764;51.430;6.840;2023-04-29T08:24:02;42.00;;;28.27;;
15327;SDS011;7764;51.430;6.840;2023-04-29T08:26:29;42.07;;;27.37;;
15327;SDS011;7764;51.430;6.840;2023-04-29T08:28:56;40.33;;;28.00;;
15327;SDS011;7764;51.430;6.840;2023-04-29T08:31:25;44.10;;;28.43;;
15327;SDS011;7764;51.430;6.840;2023-04-29T08:33:52;40.30;;;27.37;;
15327;SDS011;7764;51.430;6.840;2023-04-29T08:36:19;44.43;;;28.17;;
15327;SDS011;7764;51.430;6.840;2023-04-29T08:38:45;40.90;;;27.20;;
15327;SDS011;7764;51.430;6.840;2023-04-29T08:41:13;40.27;;;28.13;;
15327;SDS011;7764;51.430;6.840;2023-04-29T08:43:40;41.50;;;28.03;;
15327;SDS011;7764;51.430;6.840;2023-04-29T08:46:07;43.03;;;29.17;;
15327;SDS011;7764;51.430;6.840;2023-04-29T08:48:37;43.73;;;28.33;;
15327;SDS011;7764;51.430;6.840;2023-04-29T08:51:05;42.23;;;27.80;;
15327;SDS011;7764;51.430;6.840;2023-04-29T08:53:32;45.70;;;29.10;;
15327;SDS011;7764;51.430;6.840;2023-04-29T08:55:59;48.37;;;31.17;;
15327;SDS011;7764;51.430;6.840;2023-04-29T08:58:33;45.00;;;29.57;;
15327;SDS011;7764;51.430;6.840;2023-04-29T09:01:05;46.17;;;28.73;;
15327;SDS011;7764;51.430;6.840;2023-04-29T09:03:35;42.93;;;29.23;;
15327;SDS011;7764;51.430;6.840;2023-04-29T09:06:08;44.27;;;29.80;;
15327;SDS011;7764;51.430;6.840;2023-04-29T09:08:36;44.70;;;29.53;;
15327;SDS011;7764;51.430;6.840;2023-04-29T09:11:04;40.77;;;27.40;;
15327;SDS011;7764;51.430;6.840;2023-04-29T09:13:34;46.23;;;28.37;;
15327;SDS011;7764;51.430;6.840;2023-04-29T09:16:01;45.60;;;29.10;;
15327;SDS011;7764;51.430;6.840;2023-04-29T09:18:43;44.03;;;29.00;;
15327;SDS011;7764;51.430;6.840;2023-04-29T09:21:11;43.67;;;27.40;;
15327;SDS011;7764;51.430;6.840;2023-04-29T09:23:39;42.90;;;27.70;;
15327;SDS011;7764;51.430;6.840;2023-04-29T09:26:06;44.20;;;30.00;;
15327;SDS011;7764;51.430;6.840;2023-04-29T09:28:33;41.83;;;28.37;;
15327;SDS011;7764;51.430;6.840;2023-04-29T09:31:00;45.83;;;29.37;;
15327;SDS011;7764;51.430;6.840;2023-04-29T09:33:30;45.30;;;28.50;;
15327;SDS011;7764;51.430;6.840;2023-04-29T09:35:59;47.10;;;28.67;;
15327;SDS011;7764;51.430;6.840;2023-04-29T09:38:25;41.20;;;28.50;;
15327;SDS011;7764;51.430;6.840;2023-04-29T09:40:52;40.73;;;28.20;;
15327;SDS011;7764;51.430;6.840;2023-04-29T09:43:20;41.30;;;27.07;;
15327;SDS011;7764;51.430;6.840;2023-04-29T09:45:47;43.03;;;28.40;;
15327;SDS011;7764;51.430;6.840;2023-04-29T09:48:14;38.97;;;27.53;;
15327;SDS011;7764;51.430;6.840;2023-04-29T09:50:42;38.90;;;25.17;;
15327;SDS011;7764;51.430;6.840;2023-04-29T09:53:12;38.00;;;26.80;;
15327;SDS011;7764;51.430;6.840;2023-04-29T09:55:57;41.37;;;27.53;;
15327;SDS011;7764;51.430;6.840;2023-04-29T09:58:29;38.90;;;27.33;;
15327;SDS011;7764;51.430;6.840;2023-04-29T10:01:01;37.60;;;27.73;;
15327;SDS011;7764;51.430;6.840;2023-04-29T10:03:30;39.13;;;26.90;;
15327;SDS011;7764;51.430;6.840;2023-04-29T10:05:58;37.57;;;26.60;;
15327;SDS011;7764;51.430;6.840;2023-04-29T10:08:29;38.53;;;26.70;;
15327;SDS011;7764;51.430;6.840;2023-04-29T10:10:57;39.97;;;26.33;;
15327;SDS011;7764;51.430;6.840;2023-04-29T10:13:26;37.90;;;25.90;;
15327;SDS011;7764;51.430;6.840;2023-04-29T10:15:56;37.10;;;26.10;;
15327;SDS011;7764;51.430;6.840;2023-04-29T10:18:25;39.00;;;27.17;;
15327;SDS011;7764;51.430;6.840;2023-04-29T10:20:59;36.20;;;26.93;;
15327;SDS011;7764;51.430;6.840;2023-04-29T10:23:29;35.73;;;25.73;;
15327;SDS011;7764;51.430;6.840;2023-04-29T10:26:01;37.70;;;25.27;;
15327;SDS011;7764;51.430;6.840;2023-04-29T10:28:29;38.30;;;26.17;;
15327;SDS011;7764;51.430;6.840;2023-04-29T10:30:57;34.50;;;25.27;;
15327;SDS011;7764;51.430;6.840;2023-04-29T10:33:26;36.87;;;25.97;;
15327;SDS011;7764;51.430;6.840;2023-04-29T10:35:56;35.73;;;25.37;;
15327;SDS011;7764;51.430;6.840;2023-04-29T10:38:25;35.53;;;25.87;;
15327;SDS011;7764;51.430;6.840;2023-04-29T10:40:58;34.33;;;25.47;;
15327;SDS011;7764;51.430;6.840;2023-04-29T10:43:31;34.83;;;24.83;;
15327;SDS011;7764;51.430;6.840;2023-04-29T10:48:43;35.13;;;25.40;;
15327;SDS011;7764;51.430;6.840;2023-04-29T10:51:10;34.93;;;24.50;;
15327;SDS011;7764;51.430;6.840;2023-04-29T10:56:34;39.27;;;27.10;;
15327;SDS011;7764;51.430;6.840;2023-04-29T10:59:02;77.13;;;55.47;;
15327;SDS011;7764;51.430;6.840;2023-04-29T11:01:39;62.20;;;47.77;;
15327;SDS011;7764;51.430;6.840;2023-04-29T11:04:10;35.87;;;25.77;;
15327;SDS011;7764;51.430;6.840;2023-04-29T11:06:38;33.97;;;24.50;;
15327;SDS011;7764;51.430;6.840;2023-04-29T11:09:11;29.20;;;23.00;;
15327;SDS011;7764;51.430;6.840;2023-04-29T11:14:23;32.33;;;23.43;;
15327;SDS011;7764;51.430;6.840;2023-04-29T11:16:52;29.33;;;23.07;;
15327;SDS011;7764;51.430;6.840;2023-04-29T11:19:22;31.00;;;23.38;;
15327;SDS011;7764;51.430;6.840;2023-04-29T11:22:02;30.67;;;23.73;;
15327;SDS011;7764;51.430;6.840;2023-04-29T11:24:50;27.98;;;22.42;;
15327;SDS011;7764;51.430;6.840;2023-04-29T11:27:19;43.43;;;31.93;;
15327;SDS011;7764;51.430;6.840;2023-04-29T11:29:49;38.28;;;30.42;;
15327;SDS011;7764;51.430;6.840;2023-04-29T11:32:20;27.58;;;23.00;;
15327;SDS011;7764;51.430;6.840;2023-04-29T11:34:47;27.52;;;22.67;;
15327;SDS011;7764;51.430;6.840;2023-04-29T11:37:18;27.90;;;21.67;;
15327;SDS011;7764;51.430;6.840;2023-04-29T11:39:46;28.80;;;21.13;;
15327;SDS011;7764;51.430;6.840;2023-04-29T11:42:18;29.02;;;22.67;;
15327;SDS011;7764;51.430;6.840;2023-04-29T11:44:46;29.70;;;21.92;;
15327;SDS011;7764;51.430;6.840;2023-04-29T11:47:12;28.13;;;21.75;;
15327;SDS011;7764;51.430;6.840;2023-04-29T11:49:40;27.67;;;21.60;;
15327;SDS011;7764;51.430;6.840;2023-04-29T11:52:07;27.45;;;21.70;;
15327;SDS011;7764;51.430;6.840;2023-04-29T11:54:34;27.13;;;20.83;;
15327;SDS011;7764;51.430;6.840;2023-04-29T11:57:00;24.33;;;19.88;;
15327;SDS011;7764;51.430;6.840;2023-04-29T11:59:30;25.67;;;21.17;;
15327;SDS011;7764;51.430;6.840;2023-04-29T12:01:57;27.92;;;22.42;;
15327;SDS011;7764;51.430;6.840;2023-04-29T12:04:25;30.10;;;21.35;;
15327;SDS011;7764;51.430;6.840;2023-04-29T12:06:52;26.02;;;21.20;;
15327;SDS011;7764;51.430;6.840;2023-04-29T12:09:22;26.50;;;21.80;;
15327;SDS011;7764;51.430;6.840;2023-04-29T12:11:48;26.30;;;20.30;;
15327;SDS011;7764;51.430;6.840;2023-04-29T12:14:15;24.92;;;19.75;;
15327;SDS011;7764;51.430;6.840;2023-04-29T12:16:45;22.15;;;18.48;;
15327;SDS011;7764;51.430;6.840;2023-04-29T12:19:13;24.23;;;18.48;;
15327;SDS011;7764;51.430;6.840;2023-04-29T12:21:49;22.55;;;17.02;;
15327;SDS011;7764;51.430;6.840;2023-04-29T12:24:16;22.00;;;17.92;;
15327;SDS011;7764;51.430;6.840;2023-04-29T12:26:45;22.40;;;18.35;;
15327;SDS011;7764;51.430;6.840;2023-04-29T12:29:12;23.05;;;18.35;;
15327;SDS011;7764;51.430;6.840;2023-04-29T12:31:39;23.05;;;18.02;;
15327;SDS011;7764;51.430;6.840;2023-04-29T12:34:08;22.02;;;18.27;;
15327;SDS011;7764;51.430;6.840;2023-04-29T12:36:36;23.35;;;19.45;;
15327;SDS011;7764;51.430;6.840;2023-04-29T12:39:04;22.13;;;18.00;;
15327;SDS011;7764;51.430;6.840;2023-04-29T12:41:36;19.08;;;15.88;;
15327;SDS011;7764;51.430;6.840;2023-04-29T12:44:05;20.33;;;15.20;;
15327;SDS011;7764;51.430;6.840;2023-04-29T12:46:35;22.33;;;15.40;;
15327;SDS011;7764;51.430;6.840;2023-04-29T12:49:03;19.15;;;15.05;;
15327;SDS011;7764;51.430;6.840;2023-04-29T12:51:32;19.30;;;15.52;;
15327;SDS011;7764;51.430;6.840;2023-04-29T12:54:00;20.33;;;16.02;;
15327;SDS011;7764;51.430;6.840;2023-04-29T12:56:28;19.42;;;14.98;;
15327;SDS011;7764;51.430;6.840;2023-04-29T12:58:55;17.65;;;14.30;;
15327;SDS011;7764;51.430;6.840;2023-04-29T13:01:29;22.65;;;14.90;;
15327;SDS011;7764;51.430;6.840;2023-04-29T13:03:56;20.02;;;14.82;;
15327;SDS011;7764;51.430;6.840;2023-04-29T13:06:23;20.00;;;14.65;;
15327;SDS011;7764;51.430;6.840;2023-04-29T13:08:52;18.65;;;14.05;;
15327;SDS011;7764;51.430;6.840;2023-04-29T13:11:19;17.20;;;13.87;;
15327;SDS011;7764;51.430;6.840;2023-04-29T13:13:46;19.90;;;14.27;;
15327;SDS011;7764;51.430;6.840;2023-04-29T13:16:13;17.63;;;13.63;;
15327;SDS011;7764;51.430;6.840;2023-04-29T13:18:40;19.60;;;14.68;;
15327;SDS011;7764;51.430;6.840;2023-04-29T13:21:06;13.93;;;11.70;;
15327;SDS011;7764;51.430;6.840;2023-04-29T13:23:33;19.88;;;12.80;;
15327;SDS011;7764;51.430;6.840;2023-04-29T13:26:01;16.63;;;12.48;;
15327;SDS011;7764;51.430;6.840;2023-04-29T13:28:29;16.35;;;12.63;;
15327;SDS011;7764;51.430;6.840;2023-04-29T13:30:56;15.90;;;12.90;;
15327;SDS011;7764;51.430;6.840;2023-04-29T13:33:22;16.00;;;12.10;;
15327;SDS011;7764;51.430;6.840;2023-04-29T13:35:49;18.13;;;12.15;;
15327;SDS011;7764;51.430;6.840;2023-04-29T13:38:16;18.30;;;12.47;;
15327;SDS011;7764;51.430;6.840;2023-04-29T13:40:43;15.68;;;12.50;;
15327;SDS011;7764;51.430;6.840;2023-04-29T13:43:12;17.38;;;12.23;;
15327;SDS011;7764;51.430;6.840;2023-04-29T13:45:38;16.10;;;12.15;;
15327;SDS011;7764;51.430;6.840;2023-04-29T13:48:05;15.02;;;12.02;;
15327;SDS011;7764;51.430;6.840;2023-04-29T13:50:33;16.45;;;12.85;;
15327;SDS011;7764;51.430;6.840;2023-04-29T13:53:00;17.45;;;13.05;;
15327;SDS011;7764;51.430;6.840;2023-04-29T13:55:27;16.17;;;12.80;;
15327;SDS011;7764;51.430;6.840;2023-04-29T13:57:54;15.48;;;12.35;;
15327;SDS011;7764;51.430;6.840;2023-04-29T14:00:22;16.40;;;12.50;;
15327;SDS011;7764;51.430;6.840;2023-04-29T14:02:49;15.48;;;11.73;;
15327;SDS011;7764;51.430;6.840;2023-04-29T14:05:16;14.55;;;11.27;;
15327;SDS011;7764;51.430;6.840;2023-04-29T14:07:43;16.13;;;11.35;;
15327;SDS011;7764;51.430;6.840;2023-04-29T14:10:10;14.63;;;11.00;;
15327;SDS011;7764;51.430;6.840;2023-04-29T14:12:37;14.80;;;10.90;;
15327;SDS011;7764;51.430;6.840;2023-04-29T14:15:04;14.40;;;10.80;;
15327;SDS011;7764;51.430;6.840;2023-04-29T14:17:33;13.57;;;10.55;;
15327;SDS011;7764;51.430;6.840;2023-04-29T14:20:01;13.68;;;10.35;;
15327;SDS011;7764;51.430;6.840;2023-04-29T14:22:28;13.75;;;10.55;;
15327;SDS011;7764;51.430;6.840;2023-04-29T14:24:55;14.02;;;10.70;;
15327;SDS011;7764;51.430;6.840;2023-04-29T14:27:22;13.70;;;10.95;;
15327;SDS011;7764;51.430;6.840;2023-04-29T14:29:48;18.63;;;13.50;;
15327;SDS011;7764;51.430;6.840;2023-04-29T14:32:15;15.25;;;11.10;;
15327;SDS011;7764;51.430;6.840;2023-04-29T14:34:43;19.05;;;14.32;;
15327;SDS011;7764;51.430;6.840;2023-04-29T14:37:10;14.98;;;11.02;;
15327;SDS011;7764;51.430;6.840;2023-04-29T14:39:37;15.70;;;11.95;;
15327;SDS011;7764;51.430;6.840;2023-04-29T14:42:04;13.18;;;9.75;;
15327;SDS011;7764;51.430;6.840;2023-04-29T14:44:31;12.85;;;9.57;;
15327;SDS011;7764;51.430;6.840;2023-04-29T14:46:57;12.20;;;8.13;;
15327;SDS011;7764;51.430;6.840;2023-04-29T14:49:24;9.90;;;8.25;;